Time;durP1;ratioP1;P1;durP2;ratioP2;P2;SDS_P1;SDS_P2;PMS_P1;PMS_P2;Temp;Humidity;BMP_temperature;BMP_pressure;BME280_temperature;BME280_humidity;BME280_pressure;Samples;Min_cycle;Max_cycle;Signal;HPM_P1;HPM_P2
2022/05/29 00:00:51;;;;;;;3.00;1.30;;;12.80;92.10;;;;;;5082878;28;20047;-68
2022/05/29 00:03:18;;;;;;;2.28;1.52;;;12.80;92.20;;;;;;5083604;28;20239;-68
2022/05/29 00:05:45;;;;;;;4.00;1.42;;;12.80;92.30;;;;;;5082767;28;20051;-68
2022/05/29 00:08:15;;;;;;;3.80;1.48;;;12.70;92.40;;;;;;5094800;28;20022;-67
2022/05/29 00:10:42;;;;;;;3.72;1.70;;;12.70;92.40;;;;;;5103007;28;20028;-68
2022/05/29 00:13:11;;;;;;;6.78;1.70;;;12.70;92.40;;;;;;5104026;28;20020;-67
2022/05/29 00:15:38;;;;;;;4.40;1.75;;;12.70;92.50;;;;;;5086382;28;20035;-69
2022/05/29 00:18:05;;;;;;;4.38;1.70;;;12.60;92.60;;;;;;5102164;28;20032;-70
2022/05/29 00:20:30;;;;;;;3.58;1.27;;;12.70;92.60;;;;;;5104213;28;20117;-67
2022/05/29 00:22:56;;;;;;;4.47;1.75;;;12.70;92.60;;;;;;5102893;28;20285;-68
2022/05/29 00:25:22;;;;;;;4.85;1.83;;;12.70;92.60;;;;;;5104153;28;20020;-67
2022/05/29 00:27:47;;;;;;;5.03;1.70;;;12.70;92.60;;;;;;5102650;28;20023;-68
2022/05/29 00:30:14;;;;;;;3.22;1.58;;;12.70;92.70;;;;;;5123819;28;20035;-68
2022/05/29 00:32:39;;;;;;;3.58;1.65;;;12.60;92.80;;;;;;5124932;28;20050;-68
2022/05/29 00:35:05;;;;;;;3.22;1.55;;;12.60;93.20;;;;;;5124775;28;20302;-68
2022/05/29 00:37:36;;;;;;;4.60;2.00;;;12.60;93.00;;;;;;5123709;28;20032;-68
2022/05/29 00:40:10;;;;;;;3.20;1.45;;;12.70;92.80;;;;;;5125054;28;20092;-68
2022/05/29 00:42:36;;;;;;;5.28;1.40;;;12.80;92.80;;;;;;5123863;28;20023;-68
2022/05/29 00:45:02;;;;;;;6.50;1.73;;;12.80;92.70;;;;;;5106212;28;20060;-68
2022/05/29 00:47:27;;;;;;;2.30;1.40;;;12.90;92.50;;;;;;5109779;28;20065;-68
2022/05/29 00:49:53;;;;;;;6.28;1.63;;;12.90;92.40;;;;;;5103796;28;20055;-67
2022/05/29 00:52:22;;;;;;;6.07;2.03;;;12.90;92.30;;;;;;5103547;28;20020;-68
2022/05/29 00:54:54;;;;;;;3.08;1.90;;;12.90;92.30;;;;;;5103617;28;20020;-68
2022/05/29 00:57:26;;;;;;;5.95;2.13;;;12.90;92.30;;;;;;5103197;28;20032;-68
2022/05/29 00:59:54;;;;;;;5.15;1.83;;;12.90;92.20;;;;;;5102555;28;20016;-68
2022/05/29 01:02:20;;;;;;;4.90;1.77;;;12.90;92.10;;;;;;5102639;28;20023;-67
2022/05/29 01:04:46;;;;;;;7.00;1.58;;;12.80;92.20;;;;;;5102162;28;20047;-67
2022/05/29 01:07:15;;;;;;;3.17;1.45;;;12.70;92.40;;;;;;5100985;28;20211;-68
2022/05/29 01:09:44;;;;;;;5.50;1.45;;;12.70;92.50;;;;;;5087057;28;20223;-68
2022/05/29 01:12:39;;;;;;;8.90;1.73;;;12.70;92.50;;;;;;5087122;28;20066;-68
2022/05/29 01:15:37;;;;;;;3.22;1.50;;;12.60;92.60;;;;;;5086165;28;20023;-68
2022/05/29 01:18:42;;;;;;;7.95;1.60;;;12.60;92.40;;;;;;5084489;28;20060;-68
2022/05/29 01:21:47;;;;;;;4.15;1.38;;;12.60;92.50;;;;;;5085859;28;20067;-68
2022/05/29 01:24:53;;;;;;;2.58;1.65;;;12.60;92.30;;;;;;5086034;28;20024;-68
2022/05/29 01:27:44;;;;;;;3.13;1.50;;;12.50;92.50;;;;;;5111713;28;20187;-68
2022/05/29 01:30:17;;;;;;;3.33;1.30;;;12.50;92.50;;;;;;5110527;28;20027;-68
2022/05/29 01:33:23;;;;;;;6.85;1.40;;;12.40;92.30;;;;;;5127500;28;20028;-68
2022/05/29 01:36:00;;;;;;;6.38;1.52;;;12.30;92.50;;;;;;5115047;28;20118;-68
2022/05/29 01:38:33;;;;;;;4.90;1.63;;;12.20;92.60;;;;;;5126566;28;20088;-68
2022/05/29 01:41:07;;;;;;;3.58;1.40;;;12.20;92.50;;;;;;5126336;28;20030;-68
2022/05/29 01:44:02;;;;;;;5.97;1.42;;;12.20;92.50;;;;;;5126224;28;20053;-68
2022/05/29 01:46:32;;;;;;;6.30;1.42;;;12.20;92.50;;;;;;5121450;28;20071;-68
2022/05/29 01:49:20;;;;;;;4.65;2.10;;;12.20;92.50;;;;;;5104739;28;20044;-68
2022/05/29 01:52:06;;;;;;;4.22;1.60;;;12.10;92.50;;;;;;5105375;28;20099;-68
2022/05/29 01:54:39;;;;;;;2.72;1.33;;;12.10;92.60;;;;;;5106632;28;20024;-68
2022/05/29 01:57:11;;;;;;;5.05;1.80;;;12.10;92.60;;;;;;5105294;28;20020;-68
2022/05/29 01:59:44;;;;;;;4.63;1.80;;;12.00;92.50;;;;;;5106411;28;20047;-68
2022/05/29 02:02:20;;;;;;;1.90;1.50;;;11.90;92.60;;;;;;5105599;28;20016;-68
2022/05/29 02:04:49;;;;;;;4.78;1.40;;;11.80;92.80;;;;;;5106347;28;20020;-68
2022/05/29 02:10:27;;;;;;;4.03;1.73;;;11.70;92.90;;;;;;5085172;28;20031;-68
2022/05/29 02:13:08;;;;;;;4.32;1.25;;;11.70;93.00;;;;;;5085138;28;20062;-68
2022/05/29 02:15:45;;;;;;;6.38;2.22;;;11.60;93.10;;;;;;5085814;28;20308;-68
2022/05/29 02:18:36;;;;;;;2.88;1.05;;;11.60;93.10;;;;;;5083778;28;20032;-68
2022/05/29 02:21:08;;;;;;;1.55;1.17;;;11.70;93.00;;;;;;5084860;28;20020;-68
2022/05/29 02:23:41;;;;;;;3.83;1.17;;;11.60;92.90;;;;;;5084450;28;20020;-68
2022/05/29 02:26:11;;;;;;;5.50;1.35;;;11.60;92.90;;;;;;5090073;28;20307;-68
2022/05/29 02:28:40;;;;;;;3.07;1.47;;;11.60;92.80;;;;;;5124998;28;20307;-68
2022/05/29 02:31:36;;;;;;;4.30;1.33;;;11.60;92.60;;;;;;5108647;28;20027;-68
2022/05/29 02:34:33;;;;;;;3.28;1.10;;;11.60;92.50;;;;;;5112542;28;20073;-68
2022/05/29 02:37:23;;;;;;;1.48;1.17;;;11.50;92.40;;;;;;5110506;28;20266;-68
2022/05/29 02:40:25;;;;;;;3.80;1.20;;;11.50;92.30;;;;;;5124912;28;20023;-68
2022/05/29 02:43:17;;;;;;;3.20;1.27;;;11.50;92.30;;;;;;5125504;28;20031;-68
2022/05/29 02:45:50;;;;;;;2.50;1.27;;;11.40;92.10;;;;;;5125106;28;20023;-68
2022/05/29 02:48:41;;;;;;;2.97;1.25;;;11.40;92.10;;;;;;5104341;28;20024;-68
2022/05/29 02:51:24;;;;;;;3.50;1.00;;;11.40;92.20;;;;;;5090782;28;20031;-68
2022/05/29 02:53:50;;;;;;;3.42;0.90;;;11.30;91.90;;;;;;5105522;28;20195;-68
2022/05/29 02:56:16;;;;;;;2.55;0.80;;;11.20;91.70;;;;;;5105331;28;20216;-68
2022/05/29 02:58:47;;;;;;;3.83;0.98;;;11.20;91.80;;;;;;5105106;28;20023;-68
2022/05/29 03:01:23;;;;;;;3.25;1.10;;;11.20;91.70;;;;;;5103961;28;20043;-68
2022/05/29 03:04:25;;;;;;;2.45;0.85;;;11.10;91.80;;;;;;5105293;28;20020;-68
2022/05/29 03:07:01;;;;;;;2.03;0.80;;;11.00;91.60;;;;;;5103395;28;20030;-68
2022/05/29 03:09:44;;;;;;;3.45;0.90;;;11.00;91.60;;;;;;5084487;28;20029;-68
2022/05/29 03:12:24;;;;;;;2.95;1.08;;;10.90;91.50;;;;;;5083813;28;20023;-68
2022/05/29 03:15:18;;;;;;;1.92;0.63;;;11.00;91.50;;;;;;5083599;28;20020;-68
2022/05/29 03:18:05;;;;;;;4.55;0.90;;;10.90;91.40;;;;;;5083982;28;20083;-68
2022/05/29 03:20:41;;;;;;;4.20;0.73;;;10.80;91.40;;;;;;5081584;28;20024;-68
2022/05/29 03:23:31;;;;;;;3.40;0.80;;;10.80;91.50;;;;;;5067318;28;20020;-68
2022/05/29 03:26:03;;;;;;;2.67;0.52;;;10.80;91.40;;;;;;5086098;28;20028;-68
2022/05/29 03:28:42;;;;;;;3.75;0.73;;;10.80;91.40;;;;;;5090529;28;20022;-68
2022/05/29 03:31:12;;;;;;;1.77;0.65;;;10.80;91.20;;;;;;5123450;28;20031;-68
2022/05/29 03:33:40;;;;;;;2.22;0.70;;;10.70;91.10;;;;;;5123977;28;20065;-68
2022/05/29 03:36:09;;;;;;;4.15;0.60;;;10.70;91.00;;;;;;5124861;28;20207;-68
2022/05/29 03:38:34;;;;;;;2.22;0.77;;;10.70;91.00;;;;;;5089700;28;20043;-68
2022/05/29 03:41:08;;;;;;;3.78;0.70;;;10.60;91.00;;;;;;5106592;28;20019;-68
2022/05/29 03:43:34;;;;;;;1.30;0.60;;;10.70;91.00;;;;;;5106375;28;20058;-68
2022/05/29 03:45:59;;;;;;;3.53;0.88;;;10.60;91.00;;;;;;5124448;28;20020;-68
2022/05/29 03:48:25;;;;;;;1.80;1.00;;;10.60;91.00;;;;;;5104038;28;20036;-69
2022/05/29 03:50:51;;;;;;;2.40;0.68;;;10.60;91.00;;;;;;5103791;28;20362;-68
2022/05/29 03:53:16;;;;;;;1.02;0.70;;;10.70;91.00;;;;;;5104272;28;20277;-68
2022/05/29 03:55:42;;;;;;;1.02;0.52;;;10.70;91.10;;;;;;5104412;28;20023;-68
2022/05/29 03:58:07;;;;;;;2.28;0.68;;;10.60;91.00;;;;;;5104197;28;20053;-68
2022/05/29 04:00:33;;;;;;;2.28;0.80;;;10.70;90.90;;;;;;5103024;28;20061;-68
2022/05/29 04:03:01;;;;;;;6.03;0.60;;;10.70;90.80;;;;;;5103044;28;20028;-68
2022/05/29 04:05:27;;;;;;;1.95;0.40;;;10.70;90.60;;;;;;5104065;28;20204;-68
2022/05/29 04:13:43;;;;;;;3.63;0.55;;;10.90;90.40;;;;;;5082926;28;20027;-68
2022/05/29 04:16:09;;;;;;;4.63;0.60;;;10.90;90.20;;;;;;5082775;28;20176;-68
2022/05/29 04:18:37;;;;;;;3.17;0.70;;;10.90;90.10;;;;;;5082842;28;20029;-68
2022/05/29 04:21:03;;;;;;;1.52;0.60;;;10.90;90.00;;;;;;5080431;28;20055;-68
2022/05/29 04:23:29;;;;;;;3.65;0.93;;;11.00;90.10;;;;;;5083906;28;20066;-68
2022/05/29 04:25:55;;;;;;;4.80;0.93;;;11.00;89.80;;;;;;5084788;28;20033;-68
2022/05/29 04:28:22;;;;;;;4.32;0.50;;;11.00;89.40;;;;;;5123095;28;20321;-68
2022/05/29 04:30:48;;;;;;;3.72;0.80;;;11.00;89.60;;;;;;5123874;28;20027;-69
2022/05/29 04:33:14;;;;;;;3.58;0.60;;;11.00;90.10;;;;;;5124183;28;20206;-67
2022/05/29 04:35:43;;;;;;;2.55;0.40;;;11.00;89.50;;;;;;5122984;28;20207;-68
2022/05/29 04:38:10;;;;;;;3.33;0.82;;;11.00;89.60;;;;;;5122789;28;20024;-68
2022/05/29 04:40:38;;;;;;;1.20;0.95;;;11.10;89.30;;;;;;5106083;28;20026;-69
2022/05/29 04:43:04;;;;;;;2.80;0.65;;;11.10;88.80;;;;;;5126319;28;20322;-68
2022/05/29 04:45:31;;;;;;;3.42;0.60;;;11.00;88.80;;;;;;5093512;28;20019;-68
2022/05/29 04:47:56;;;;;;;7.00;0.50;;;11.00;88.80;;;;;;5110574;28;20034;-69
2022/05/29 04:50:22;;;;;;;3.38;0.55;;;11.10;88.80;;;;;;5107261;28;20265;-68
2022/05/29 04:52:50;;;;;;;2.00;0.40;;;11.10;88.60;;;;;;5106424;28;20322;-68
2022/05/29 04:55:16;;;;;;;3.50;0.85;;;11.10;88.60;;;;;;5107738;28;20083;-68
2022/05/29 04:57:42;;;;;;;2.38;0.50;;;11.10;88.20;;;;;;5107931;28;20020;-68
2022/05/29 05:00:08;;;;;;;3.13;0.47;;;11.20;88.60;;;;;;5107479;28;20016;-68
2022/05/29 05:02:34;;;;;;;2.33;0.60;;;11.20;87.90;;;;;;5106341;28;20020;-68
2022/05/29 05:05:00;;;;;;;3.53;0.60;;;11.20;88.10;;;;;;5106260;28;20079;-68
2022/05/29 05:07:25;;;;;;;5.13;0.90;;;11.20;88.20;;;;;;5102061;28;20017;-68
2022/05/29 05:09:51;;;;;;;2.20;0.40;;;11.30;88.10;;;;;;5087083;28;20028;-68
2022/05/29 05:12:17;;;;;;;3.50;0.68;;;11.30;88.20;;;;;;5086924;28;20022;-68
2022/05/29 05:14:42;;;;;;;1.27;0.60;;;11.30;88.30;;;;;;5086962;28;20028;-68
2022/05/29 05:17:08;;;;;;;2.25;0.70;;;11.30;88.00;;;;;;5086976;28;20212;-68
2022/05/29 05:19:34;;;;;;;2.50;0.57;;;11.30;88.10;;;;;;5085682;28;20017;-68
2022/05/29 05:22:01;;;;;;;1.58;0.63;;;11.20;88.00;;;;;;5085150;28;20036;-68
2022/05/29 05:24:27;;;;;;;1.30;0.65;;;11.10;88.20;;;;;;5086888;28;20025;-68
2022/05/29 05:26:53;;;;;;;2.97;0.60;;;11.10;88.70;;;;;;5104425;28;20280;-68
2022/05/29 05:29:20;;;;;;;1.77;0.65;;;11.10;88.50;;;;;;5127069;28;20338;-68
2022/05/29 05:31:45;;;;;;;5.45;3.47;;;11.10;88.50;;;;;;5126069;28;20030;-68
2022/05/29 05:34:11;;;;;;;3.50;2.92;;;11.10;88.60;;;;;;5127081;28;20019;-68
2022/05/29 05:36:37;;;;;;;7.05;5.05;;;11.10;88.60;;;;;;5127443;28;20348;-68
2022/05/29 05:39:03;;;;;;;5.68;4.15;;;11.20;88.60;;;;;;5126963;28;20047;-68
2022/05/29 05:41:29;;;;;;;7.40;4.30;;;11.20;88.50;;;;;;5126165;28;20027;-68
2022/05/29 05:43:54;;;;;;;4.10;2.58;;;11.30;88.00;;;;;;5126041;28;20082;-68
2022/05/29 05:46:20;;;;;;;5.88;1.20;;;11.30;88.00;;;;;;5123458;28;20012;-68
2022/05/29 05:48:45;;;;;;;3.67;1.50;;;11.30;87.80;;;;;;5105266;28;20343;-69
2022/05/29 05:51:12;;;;;;;7.85;4.50;;;11.40;87.70;;;;;;5106379;28;20028;-68
2022/05/29 05:53:39;;;;;;;2.67;2.47;;;11.40;87.90;;;;;;5087852;28;20318;-68
2022/05/29 05:56:07;;;;;;;4.20;3.80;;;11.40;87.60;;;;;;5106738;28;20016;-68
2022/05/29 05:58:33;;;;;;;3.20;2.58;;;11.30;87.50;;;;;;5106599;28;20027;-68
2022/05/29 06:01:13;;;;;;;8.70;2.20;;;11.30;87.50;;;;;;5106336;28;20246;-68
2022/05/29 06:03:39;;;;;;;3.30;1.50;;;11.20;88.00;;;;;;5105224;28;20087;-68
2022/05/29 06:06:05;;;;;;;5.25;1.20;;;11.10;88.20;;;;;;5106075;28;20024;-68
2022/05/29 06:08:31;;;;;;;1.42;1.17;;;11.00;88.50;;;;;;5091783;28;20246;-68
2022/05/29 06:10:57;;;;;;;5.28;1.30;;;11.10;88.50;;;;;;5086047;28;20024;-68
2022/05/29 06:13:23;;;;;;;3.63;1.40;;;11.10;88.30;;;;;;5084554;28;20096;-68
2022/05/29 06:15:49;;;;;;;2.72;0.77;;;11.10;88.80;;;;;;5084830;28;20020;-68
2022/05/29 06:18:16;;;;;;;2.25;0.65;;;11.20;88.20;;;;;;5084913;28;20024;-68
2022/05/29 06:20:42;;;;;;;1.38;0.50;;;11.40;88.10;;;;;;5084646;28;20057;-68
2022/05/29 06:23:09;;;;;;;3.75;0.93;;;11.50;87.60;;;;;;5083588;28;20218;-68
2022/05/29 06:25:38;;;;;;;6.82;1.80;;;11.50;88.10;;;;;;5067900;28;20016;-68
2022/05/29 06:28:04;;;;;;;3.33;0.88;;;11.50;88.10;;;;;;5124273;28;20352;-68
2022/05/29 06:30:30;;;;;;;2.53;0.70;;;11.60;87.90;;;;;;5126306;28;20030;-68
2022/05/29 06:32:57;;;;;;;2.35;0.90;;;11.60;87.90;;;;;;5126068;28;20214;-68
2022/05/29 06:35:23;;;;;;;2.78;0.85;;;11.70;87.80;;;;;;5108127;28;20015;-68
2022/05/29 06:37:49;;;;;;;2.28;0.80;;;11.80;87.80;;;;;;5125853;28;20353;-67
2022/05/29 06:40:15;;;;;;;1.52;0.50;;;11.90;87.00;;;;;;5125952;28;20019;-68
2022/05/29 06:42:41;;;;;;;3.13;0.90;;;11.80;86.40;;;;;;5126168;28;20019;-68
2022/05/29 06:45:09;;;;;;;2.90;0.80;;;11.80;86.90;;;;;;5125042;28;20210;-68
2022/05/29 06:47:34;;;;;;;1.90;0.60;;;11.90;86.80;;;;;;5119471;28;20019;-68
2022/05/29 06:50:01;;;;;;;10.68;1.33;;;11.90;86.70;;;;;;5103587;28;20333;-68
2022/05/29 06:52:31;;;;;;;2.75;0.90;;;12.00;87.00;;;;;;5105507;28;20243;-67
2022/05/29 06:54:57;;;;;;;3.00;0.80;;;11.80;87.10;;;;;;5104204;28;20026;-67
2022/05/29 06:57:40;;;;;;;3.88;1.77;;;12.00;87.40;;;;;;5084091;28;20017;-68
2022/05/29 07:08:29;;;;;;;4.20;1.58;;;12.60;86.00;;;;;;5089899;28;20012;-67
2022/05/29 07:10:59;;;;;;;7.22;1.30;;;12.70;86.00;;;;;;5103925;28;20035;-67
2022/05/29 07:13:27;;;;;;;2.10;0.80;;;12.80;86.40;;;;;;5103707;28;20056;-68
2022/05/29 07:15:53;;;;;;;2.13;0.88;;;12.80;86.30;;;;;;5103948;28;20027;-67
2022/05/29 07:18:18;;;;;;;6.95;1.42;;;13.00;86.00;;;;;;5086731;28;20012;-67
2022/05/29 07:20:44;;;;;;;3.25;0.68;;;13.00;85.20;;;;;;5105006;28;20027;-67
2022/05/29 07:23:10;;;;;;;2.03;0.80;;;13.20;85.40;;;;;;5102590;28;20323;-70
2022/05/29 07:25:36;;;;;;;3.53;1.13;;;13.30;84.80;;;;;;5103622;28;20065;-67
2022/05/29 07:28:01;;;;;;;2.67;0.77;;;13.40;84.90;;;;;;5122691;28;20023;-67
2022/05/29 07:30:27;;;;;;;3.75;0.90;;;13.50;85.00;;;;;;5124033;28;20323;-67
2022/05/29 07:32:52;;;;;;;2.20;0.77;;;13.60;84.30;;;;;;5125061;28;20015;-68
2022/05/29 07:35:18;;;;;;;2.80;0.77;;;13.60;83.80;;;;;;5124769;28;20086;-68
2022/05/29 07:37:44;;;;;;;3.95;1.00;;;13.70;84.10;;;;;;5124572;28;20015;-68
2022/05/29 07:40:11;;;;;;;4.03;1.38;;;13.60;84.10;;;;;;5125030;28;20047;-68
2022/05/29 07:45:22;;;;;;;4.18;1.30;;;13.60;83.50;;;;;;5109650;28;20240;-68
2022/05/29 07:47:48;;;;;;;3.78;0.80;;;13.80;83.80;;;;;;5108901;28;20031;-68
2022/05/29 07:50:17;;;;;;;6.63;1.13;;;13.90;82.70;;;;;;5103803;28;20343;-69
2022/05/29 07:52:44;;;;;;;2.45;0.60;;;13.90;81.70;;;;;;5086260;28;20044;-68
2022/05/29 07:55:11;;;;;;;4.13;1.00;;;13.70;81.00;;;;;;5102996;28;20024;-68
2022/05/29 07:57:36;;;;;;;3.00;0.98;;;13.60;81.90;;;;;;5104337;28;20020;-68
2022/05/29 08:00:05;;;;;;;4.03;0.88;;;13.60;83.20;;;;;;5104151;28;20031;-68
2022/05/29 08:02:34;;;;;;;3.33;0.98;;;13.70;82.10;;;;;;5104278;28;20031;-68
2022/05/29 08:05:02;;;;;;;5.03;1.10;;;13.70;81.90;;;;;;5103806;28;20047;-69
2022/05/29 08:07:28;;;;;;;3.72;0.90;;;13.80;81.90;;;;;;5096963;28;20088;-69
2022/05/29 08:09:54;;;;;;;1.95;0.60;;;13.80;79.30;;;;;;5082578;28;20024;-68
2022/05/29 08:12:20;;;;;;;2.45;0.90;;;13.60;80.10;;;;;;5083952;28;20051;-68
2022/05/29 08:14:45;;;;;;;8.05;0.88;;;13.60;79.90;;;;;;5082257;28;20318;-69
2022/05/29 08:17:11;;;;;;;4.18;1.00;;;13.70;80.50;;;;;;5083689;28;20024;-68
2022/05/29 08:19:38;;;;;;;2.08;0.65;;;13.80;79.60;;;;;;5083632;28;20199;-68
2022/05/29 08:22:04;;;;;;;2.72;0.85;;;13.80;79.10;;;;;;5083850;28;20346;-68
2022/05/29 08:30:43;;;;;;;2.55;0.80;;;13.70;79.80;;;;;;5088851;28;20020;-68
2022/05/29 08:33:13;;;;;;;2.33;1.00;;;13.90;80.30;;;;;;5102848;28;20062;-69
2022/05/29 08:35:41;;;;;;;2.95;0.70;;;14.00;79.50;;;;;;5102339;28;20020;-69
2022/05/29 08:38:09;;;;;;;1.92;0.70;;;14.00;79.40;;;;;;5085731;28;20024;-68
2022/05/29 08:40:45;;;;;;;3.40;0.60;;;13.90;79.50;;;;;;5102538;28;20023;-68
2022/05/29 08:43:18;;;;;;;2.67;0.65;;;14.10;79.90;;;;;;5102691;28;20203;-70
2022/05/29 08:45:46;;;;;;;2.22;0.73;;;14.20;79.60;;;;;;5103337;28;20029;-72
2022/05/29 08:48:12;;;;;;;6.25;0.68;;;14.30;79.10;;;;;;5102940;28;20079;-69
2022/05/29 08:50:47;;;;;;;4.90;0.93;;;14.20;79.80;;;;;;5102466;28;20211;-69
2022/05/29 08:53:28;;;;;;;4.88;0.98;;;14.20;80.80;;;;;;5102501;28;20023;-68
2022/05/29 08:56:03;;;;;;;5.13;0.75;;;14.30;80.20;;;;;;5103370;28;20298;-70
2022/05/29 08:58:54;;;;;;;4.50;0.90;;;14.30;79.90;;;;;;5103522;28;20342;-68
2022/05/29 09:01:59;;;;;;;3.72;0.70;;;14.30;80.20;;;;;;5102733;28;20027;-68
2022/05/29 09:04:32;;;;;;;5.35;0.90;;;14.30;80.50;;;;;;5102227;28;20012;-68
2022/05/29 09:07:00;;;;;;;3.03;0.93;;;14.50;80.70;;;;;;5101641;28;20020;-68
2022/05/29 09:09:39;;;;;;;4.85;0.65;;;14.60;79.80;;;;;;5082140;28;20087;-69
2022/05/29 09:12:11;;;;;;;5.38;1.00;;;14.60;80.40;;;;;;5082206;28;20032;-67
2022/05/29 09:14:47;;;;;;;3.30;0.93;;;14.40;80.50;;;;;;5081961;28;20012;-69
2022/05/29 09:17:24;;;;;;;4.85;0.80;;;14.40;80.50;;;;;;5082897;28;20201;-70
2022/05/29 09:20:30;;;;;;;2.85;0.80;;;14.40;81.20;;;;;;5082035;28;20300;-70
2022/05/29 09:22:59;;;;;;;3.75;1.00;;;14.50;80.60;;;;;;5082373;28;20189;-68
2022/05/29 09:25:34;;;;;;;1.20;0.68;;;14.40;80.70;;;;;;5080921;28;20102;-70
2022/05/29 09:28:04;;;;;;;3.22;0.75;;;14.40;80.10;;;;;;5120639;28;20020;-69
2022/05/29 09:30:30;;;;;;;2.35;0.80;;;14.30;79.40;;;;;;5126363;28;20051;-68
2022/05/29 09:33:04;;;;;;;3.00;0.80;;;14.30;80.30;;;;;;5127232;28;20042;-69
2022/05/29 09:36:00;;;;;;;5.93;0.85;;;14.60;80.10;;;;;;5127245;28;20024;-68
2022/05/29 09:38:36;;;;;;;2.25;0.70;;;14.80;78.70;;;;;;5113163;28;20016;-68
2022/05/29 09:41:11;;;;;;;2.85;1.08;;;14.50;78.60;;;;;;5109943;28;20027;-68
2022/05/29 09:43:36;;;;;;;3.70;0.80;;;14.70;79.20;;;;;;5126163;28;20072;-70
2022/05/29 09:46:21;;;;;;;2.90;0.73;;;14.90;77.90;;;;;;5124594;28;20318;-70
2022/05/29 09:52:14;;;;;;;4.72;0.73;;;15.30;76.60;;;;;;5105886;28;20103;-70
2022/05/29 09:55:18;;;;;;;2.95;0.65;;;15.30;77.00;;;;;;5075135;28;20061;-69
2022/05/29 09:57:52;;;;;;;1.42;0.60;;;15.40;76.70;;;;;;5085546;28;20199;-68
2022/05/29 10:00:39;;;;;;;3.78;0.70;;;15.50;76.50;;;;;;5086338;28;20021;-68
2022/05/29 10:03:09;;;;;;;2.80;0.50;;;15.60;75.80;;;;;;5085731;28;20043;-68
2022/05/29 10:05:38;;;;;;;2.10;0.60;;;15.50;76.10;;;;;;5086167;28;20372;-70
2022/05/29 10:08:34;;;;;;;1.70;0.50;;;15.70;75.60;;;;;;5091115;28;20020;-69
2022/05/29 10:11:21;;;;;;;3.72;0.63;;;15.90;75.80;;;;;;5101953;28;20031;-70
2022/05/29 10:13:48;;;;;;;1.95;0.65;;;16.30;75.10;;;;;;5098973;28;20024;-69
2022/05/29 10:16:31;;;;;;;4.55;0.80;;;16.60;73.90;;;;;;5101010;28;20311;-69
2022/05/29 10:18:57;;;;;;;1.90;0.65;;;16.80;73.80;;;;;;5085844;28;20024;-71
2022/05/29 10:21:28;;;;;;;4.07;0.70;;;16.90;73.40;;;;;;5084820;28;20066;-71
2022/05/29 10:24:10;;;;;;;3.05;0.98;;;16.80;73.80;;;;;;5101270;28;20303;-70
2022/05/29 10:26:36;;;;;;;;;;;16.50;74.30;;;;;;5110289;28;20089;-70
2022/05/29 10:29:32;;;;;;;2.33;0.47;;;16.10;75.00;;;;;;5126480;28;20188;-69
2022/05/29 10:32:00;;;;;;;3.15;0.80;;;16.00;75.50;;;;;;5110959;28;20183;-71
2022/05/29 10:34:29;;;;;;;3.53;0.75;;;16.10;75.30;;;;;;5126173;28;20098;-69
2022/05/29 10:36:56;;;;;;;2.22;0.70;;;16.10;76.20;;;;;;5124604;28;20295;-70
2022/05/29 10:39:27;;;;;;;4.38;0.60;;;16.10;76.40;;;;;;5123410;28;20024;-70
2022/05/29 10:41:54;;;;;;;2.97;0.60;;;16.20;75.30;;;;;;5125124;28;20027;-71
2022/05/29 10:44:42;;;;;;;2.85;0.70;;;16.00;74.60;;;;;;5124965;28;20065;-71
2022/05/29 10:47:39;;;;;;;2.08;0.70;;;15.90;74.90;;;;;;5114203;28;20093;-70
2022/05/29 10:50:21;;;;;;;1.55;0.47;;;15.90;74.30;;;;;;5076542;28;20044;-69
2022/05/29 10:53:26;;;;;;;2.33;0.50;;;15.80;74.70;;;;;;5104340;28;20235;-70
2022/05/29 10:56:06;;;;;;;2.88;0.60;;;16.00;74.80;;;;;;5093121;28;20043;-71
2022/05/29 10:59:11;;;;;;;3.08;0.65;;;16.30;74.10;;;;;;5104174;28;20023;-70
2022/05/29 11:05:18;;;;;;;3.97;0.50;;;16.80;73.00;;;;;;5104224;28;20319;-70
2022/05/29 11:08:12;;;;;;;1.90;0.55;;;17.10;72.50;;;;;;5096009;28;20025;-70
2022/05/29 11:11:02;;;;;;;2.15;0.80;;;16.90;72.80;;;;;;5084005;28;20031;-68
2022/05/29 11:14:03;;;;;;;3.83;0.60;;;16.60;73.90;;;;;;5083279;28;20327;-71
2022/05/29 11:17:08;;;;;;;2.22;0.70;;;16.50;74.10;;;;;;5084069;28;20038;-72
2022/05/29 11:20:05;;;;;;;3.22;0.47;;;16.30;74.20;;;;;;5083521;28;20020;-71
2022/05/29 11:23:12;;;;;;;3.25;0.50;;;16.10;74.60;;;;;;5083922;28;20088;-70
2022/05/29 11:26:07;;;;;;;3.25;0.52;;;16.00;75.00;;;;;;5081749;28;20016;-69
2022/05/29 11:29:07;;;;;;;2.13;0.77;;;15.60;75.60;;;;;;5083908;28;20024;-71
2022/05/29 11:32:14;;;;;;;1.45;0.50;;;15.40;76.50;;;;;;5083117;28;20023;-69
2022/05/29 11:35:04;;;;;;;2.28;0.70;;;15.30;76.90;;;;;;5058502;28;20036;-69
2022/05/29 11:37:55;;;;;;;1.30;0.60;;;15.50;76.40;;;;;;5082475;28;20040;-70
2022/05/29 11:40:29;;;;;;;3.00;0.80;;;15.80;76.30;;;;;;5083436;28;20024;-70
2022/05/29 11:43:35;;;;;;;1.30;0.47;;;15.80;76.60;;;;;;5066550;28;20023;-69
2022/05/29 11:51:59;;;;;;;2.38;0.63;;;15.10;78.00;;;;;;5103342;28;20031;-70
2022/05/29 11:54:49;;;;;;;3.60;0.80;;;15.00;78.20;;;;;;5103282;28;20118;-71
2022/05/29 11:57:27;;;;;;;2.60;0.80;;;15.10;78.10;;;;;;5103220;28;20028;-70
2022/05/29 12:00:00;;;;;;;4.13;0.60;;;15.30;77.90;;;;;;5103187;28;20302;-70
2022/05/29 12:03:06;;;;;;;2.85;0.75;;;15.50;77.50;;;;;;5103996;28;20023;-69
2022/05/29 12:05:55;;;;;;;2.22;0.85;;;15.70;77.10;;;;;;5089269;28;20133;-70
2022/05/29 12:09:00;;;;;;;2.75;0.60;;;15.90;76.10;;;;;;5089754;28;20065;-69
2022/05/29 12:11:51;;;;;;;1.52;0.60;;;16.10;75.90;;;;;;5082786;28;20035;-69
2022/05/29 12:14:41;;;;;;;3.30;0.70;;;16.20;75.50;;;;;;5068765;28;20185;-69
2022/05/29 12:17:46;;;;;;;1.63;0.82;;;16.10;75.60;;;;;;5068348;28;20039;-71
2022/05/29 12:20:20;;;;;;;6.10;1.00;;;16.00;76.10;;;;;;5082868;28;20212;-70
2022/05/29 12:22:51;;;;;;;5.32;0.82;;;16.50;75.20;;;;;;5082671;28;20299;-69
2022/05/29 12:25:43;;;;;;;2.95;0.70;;;16.50;75.10;;;;;;5083798;28;20037;-69
2022/05/29 12:28:15;;;;;;;2.40;0.90;;;16.70;75.10;;;;;;5120763;28;20046;-69
2022/05/29 12:30:45;;;;;;;2.10;0.55;;;16.60;75.10;;;;;;5124217;28;20094;-69
2022/05/29 12:33:22;;;;;;;3.40;1.23;;;16.70;75.50;;;;;;5122786;28;20031;-70
2022/05/29 12:36:12;;;;;;;4.13;1.10;;;17.00;74.60;;;;;;5124424;28;20020;-70
2022/05/29 12:39:04;;;;;;;5.20;1.33;;;16.70;75.00;;;;;;5122474;28;20050;-70
2022/05/29 12:42:09;;;;;;;3.67;0.75;;;16.20;76.70;;;;;;5109877;28;20011;-68
2022/05/29 12:44:58;;;;;;;4.30;0.85;;;15.70;77.50;;;;;;5111894;28;20074;-69
2022/05/29 12:47:53;;;;;;;2.80;0.63;;;15.50;78.40;;;;;;5110878;28;20197;-69
2022/05/29 12:50:32;;;;;;;2.67;0.80;;;15.30;78.90;;;;;;5102434;28;20103;-68
2022/05/29 12:53:30;;;;;;;3.25;1.00;;;15.20;79.70;;;;;;5102420;28;20035;-68
2022/05/29 12:56:36;;;;;;;3.22;0.82;;;15.30;82.50;;;;;;5102688;28;20122;-70
2022/05/29 12:59:41;;;;;;;3.45;1.00;;;15.20;82.50;;;;;;5102344;28;20020;-69
2022/05/29 13:02:35;;;;;;;5.40;1.30;;;15.20;83.70;;;;;;5102636;28;20087;-69
2022/05/29 13:05:25;;;;;;;8.50;3.22;;;15.20;83.50;;;;;;5106807;28;20096;-69
2022/05/29 13:08:30;;;;;;;5.90;2.00;;;15.20;84.90;;;;;;5098353;28;20024;-69
2022/05/29 13:10:59;;;;;;;4.53;1.30;;;15.00;84.90;;;;;;5086268;28;20029;-69
2022/05/29 13:13:35;;;;;;;3.45;0.80;;;15.10;84.70;;;;;;5085956;28;20025;-69
2022/05/29 13:16:23;;;;;;;4.18;1.10;;;15.20;84.50;;;;;;5087218;28;20017;-69
2022/05/29 13:19:14;;;;;;;5.13;1.42;;;15.30;83.90;;;;;;5086077;28;20315;-69
2022/05/29 13:22:02;;;;;;;2.67;1.13;;;15.30;84.10;;;;;;5086912;28;20016;-69
2022/05/29 13:24:33;;;;;;;6.18;1.90;;;15.50;83.00;;;;;;5086032;28;20347;-68
2022/05/29 13:27:28;;;;;;;8.05;1.80;;;15.50;83.20;;;;;;5104687;28;20078;-72
2022/05/29 13:29:56;;;;;;;4.30;1.15;;;15.40;82.80;;;;;;5113263;28;20028;-70
2022/05/29 13:32:27;;;;;;;3.03;1.35;;;15.30;83.40;;;;;;5126453;28;20255;-70
2022/05/29 13:35:32;;;;;;;4.40;1.58;;;15.30;84.10;;;;;;5126444;28;20079;-69
2022/05/29 13:37:58;;;;;;;3.70;1.20;;;15.30;83.50;;;;;;5100640;28;20031;-69
2022/05/29 13:40:42;;;;;;;4.82;0.90;;;15.20;82.60;;;;;;5127183;28;20210;-69
2022/05/29 13:43:37;;;;;;;2.42;1.10;;;15.20;82.60;;;;;;5109114;28;20027;-69
2022/05/29 13:46:23;;;;;;;7.53;1.65;;;15.20;82.20;;;;;;5124988;28;20060;-69
2022/05/29 13:49:20;;;;;;;7.13;1.30;;;15.30;82.10;;;;;;5105188;28;20051;-68
2022/05/29 13:51:46;;;;;;;3.95;1.30;;;15.30;81.40;;;;;;5091746;28;20322;-69
2022/05/29 13:54:30;;;;;;;3.97;0.80;;;15.30;81.20;;;;;;5105472;28;20015;-70
2022/05/29 13:57:07;;;;;;;6.53;1.10;;;15.50;81.00;;;;;;5106635;28;20024;-69
2022/05/29 14:05:46;;;;;;;3.17;1.33;;;16.20;77.40;;;;;;5105815;28;20346;-69
2022/05/29 14:08:26;;;;;;;3.30;0.98;;;16.30;78.90;;;;;;5093357;28;20020;-69
2022/05/29 14:11:12;;;;;;;3.65;0.80;;;16.70;76.30;;;;;;5084403;28;20336;-69
2022/05/29 14:13:49;;;;;;;3.83;0.70;;;17.10;74.00;;;;;;5084271;28;20062;-71
2022/05/29 14:16:38;;;;;;;4.80;0.95;;;17.30;73.90;;;;;;5085061;28;20029;-70